Time;durP1;ratioP1;P1;durP2;ratioP2;P2;SDS_P1;SDS_P2;PMS_P1;PMS_P2;Temp;Humidity;BMP_temperature;BMP_pressure;BME280_temperature;BME280_humidity;BME280_pressure;Samples;Min_cycle;Max_cycle;Signal;HPM_P1;HPM_P2
2023/09/09 00:02:38;;;;;;;16.67;10.47;;;14.10;99.90;;;;;;5046355;28;20228;-62
2023/09/09 00:05:29;;;;;;;18.20;10.77;;;14.10;99.90;;;;;;5047030;28;20334;-62
2023/09/09 00:08:18;;;;;;;21.57;11.20;;;14.00;99.90;;;;;;5047119;28;20208;-62
2023/09/09 00:11:06;;;;;;;21.57;11.73;;;14.00;99.90;;;;;;5050172;28;20216;-62
2023/09/09 00:13:53;;;;;;;21.23;11.73;;;13.90;99.90;;;;;;5046499;28;20236;-62
2023/09/09 00:16:40;;;;;;;22.43;13.17;;;13.90;99.90;;;;;;5048851;28;20302;-62
2023/09/09 00:19:28;;;;;;;23.33;13.00;;;13.90;99.90;;;;;;5038545;28;20241;-62
2023/09/09 00:22:18;;;;;;;24.80;12.37;;;13.90;99.90;;;;;;5046702;28;20308;-62
2023/09/09 00:25:06;;;;;;;23.47;12.57;;;14.00;99.90;;;;;;5049311;28;20715;-62
2023/09/09 00:27:54;;;;;;;23.57;11.80;;;14.00;99.90;;;;;;5038871;28;20739;-62
2023/09/09 00:30:42;;;;;;;17.00;11.67;;;14.00;99.90;;;;;;5049666;28;20209;-62
2023/09/09 00:33:29;;;;;;;19.87;11.20;;;14.00;99.90;;;;;;5051901;28;20234;-63
2023/09/09 00:36:16;;;;;;;20.97;11.17;;;14.00;99.90;;;;;;5049344;28;20214;-62
2023/09/09 00:39:05;;;;;;;21.37;11.20;;;13.90;99.90;;;;;;5044365;28;20203;-62
2023/09/09 00:41:52;;;;;;;19.30;10.60;;;13.90;99.90;;;;;;5048442;28;20225;-62
2023/09/09 00:44:39;;;;;;;17.77;10.83;;;13.90;99.90;;;;;;5039387;28;20331;-62
2023/09/09 00:47:27;;;;;;;17.37;10.67;;;13.90;99.90;;;;;;5049357;28;20225;-62
2023/09/09 00:50:14;;;;;;;16.47;10.80;;;13.90;99.90;;;;;;5044946;28;20334;-63
2023/09/09 00:53:01;;;;;;;20.53;11.33;;;13.90;99.90;;;;;;5051434;28;20695;-62
2023/09/09 00:55:50;;;;;;;21.20;12.10;;;13.90;99.90;;;;;;5044111;28;20215;-62
2023/09/09 00:58:37;;;;;;;20.37;11.83;;;13.90;99.90;;;;;;5050480;28;22116;-63
2023/09/09 01:01:24;;;;;;;21.10;11.90;;;13.90;99.90;;;;;;5040315;28;20204;-63
2023/09/09 01:04:11;;;;;;;23.23;12.53;;;13.80;99.90;;;;;;5046352;28;20555;-62
2023/09/09 01:07:01;;;;;;;21.73;12.43;;;13.80;99.90;;;;;;5041027;28;20334;-62
2023/09/09 01:09:48;;;;;;;17.57;11.00;;;13.80;99.90;;;;;;5046547;28;20196;-62
2023/09/09 01:12:36;;;;;;;18.73;11.90;;;13.80;99.90;;;;;;5047815;28;20628;-63
2023/09/09 01:15:24;;;;;;;18.60;11.50;;;13.80;99.90;;;;;;5041536;28;20205;-62
2023/09/09 01:18:11;;;;;;;21.90;11.93;;;13.80;99.90;;;;;;5046514;28;20551;-62
2023/09/09 01:21:00;;;;;;;20.20;12.60;;;13.80;99.90;;;;;;5044308;28;20215;-62
2023/09/09 01:23:49;;;;;;;22.83;12.67;;;13.80;99.90;;;;;;5048098;28;20220;-62
2023/09/09 01:26:37;;;;;;;21.83;13.37;;;13.70;99.90;;;;;;5037640;28;20297;-62
2023/09/09 01:29:24;;;;;;;21.67;12.43;;;13.70;99.90;;;;;;5048990;28;20750;-62
2023/09/09 01:32:11;;;;;;;30.80;12.30;;;13.70;99.90;;;;;;5042039;28;20201;-62
2023/09/09 01:34:58;;;;;;;22.07;11.90;;;13.70;99.90;;;;;;5040313;28;20204;-62
2023/09/09 01:37:45;;;;;;;24.07;11.53;;;13.80;99.90;;;;;;5044605;28;20203;-62
2023/09/09 01:40:34;;;;;;;22.40;13.50;;;13.70;99.90;;;;;;5045030;28;20208;-62
2023/09/09 01:43:21;;;;;;;20.50;12.20;;;13.70;99.90;;;;;;5050970;28;20219;-62
2023/09/09 01:46:08;;;;;;;21.37;12.53;;;13.70;99.90;;;;;;5042149;28;20258;-62
2023/09/09 01:48:57;;;;;;;18.17;12.50;;;13.70;99.90;;;;;;5052266;28;20204;-62
2023/09/09 01:51:44;;;;;;;19.80;11.73;;;13.70;99.90;;;;;;5039165;28;20234;-62
2023/09/09 01:54:31;;;;;;;20.53;12.87;;;13.70;99.90;;;;;;5047671;28;20200;-62
2023/09/09 01:57:22;;;;;;;19.43;12.17;;;13.70;99.90;;;;;;5047767;28;20202;-62
2023/09/09 02:00:10;;;;;;;19.23;12.00;;;13.70;99.90;;;;;;5045742;28;20216;-62
2023/09/09 02:02:57;;;;;;;25.33;13.03;;;13.60;99.90;;;;;;5052216;28;20291;-62
2023/09/09 02:05:44;;;;;;;17.97;11.40;;;13.60;99.90;;;;;;5049839;28;20689;-62
2023/09/09 02:08:31;;;;;;;19.37;10.97;;;13.60;99.90;;;;;;5049890;28;20216;-62
2023/09/09 02:11:19;;;;;;;18.77;11.10;;;13.60;99.90;;;;;;5045133;28;20224;-62
2023/09/09 02:14:07;;;;;;;17.13;11.27;;;13.60;99.90;;;;;;5055212;28;20674;-62
2023/09/09 02:16:55;;;;;;;21.53;11.80;;;13.50;99.90;;;;;;5050543;28;20209;-62
2023/09/09 02:19:43;;;;;;;17.70;11.87;;;13.50;99.90;;;;;;5051166;28;20208;-62
2023/09/09 02:22:30;;;;;;;19.93;11.47;;;13.50;99.90;;;;;;5049120;28;20215;-62
2023/09/09 02:25:18;;;;;;;16.77;11.07;;;13.50;99.90;;;;;;5047608;28;20236;-62
2023/09/09 02:28:06;;;;;;;22.10;11.07;;;13.40;99.90;;;;;;5048488;28;20675;-62
2023/09/09 02:30:54;;;;;;;20.97;11.57;;;13.40;99.90;;;;;;5051668;28;20215;-62
2023/09/09 02:33:41;;;;;;;16.63;11.00;;;13.40;99.90;;;;;;5048719;28;20200;-62
2023/09/09 02:36:29;;;;;;;16.73;10.90;;;13.40;99.90;;;;;;5048987;28;20204;-62
2023/09/09 02:39:16;;;;;;;19.77;11.47;;;13.40;99.90;;;;;;5046517;28;20211;-62
2023/09/09 02:42:03;;;;;;;15.73;10.80;;;13.40;99.90;;;;;;5052129;28;20199;-62
2023/09/09 02:44:50;;;;;;;20.73;11.37;;;13.30;99.90;;;;;;5048865;28;20281;-62
2023/09/09 02:47:39;;;;;;;17.03;10.70;;;13.30;99.90;;;;;;5050594;28;20210;-62
2023/09/09 02:50:26;;;;;;;17.33;10.67;;;13.30;99.90;;;;;;5047441;28;20699;-62
2023/09/09 02:53:13;;;;;;;18.27;11.03;;;13.30;99.90;;;;;;5049721;28;20365;-62
2023/09/09 02:56:01;;;;;;;26.90;10.87;;;13.30;99.90;;;;;;5054179;28;20218;-62
2023/09/09 02:58:48;;;;;;;18.43;10.33;;;13.20;99.90;;;;;;5050922;28;20208;-62
2023/09/09 03:01:35;;;;;;;15.83;9.90;;;13.20;99.90;;;;;;5049783;28;20322;-62
2023/09/09 03:04:24;;;;;;;19.77;10.27;;;13.20;99.90;;;;;;5054347;28;20247;-62
2023/09/09 03:07:11;;;;;;;17.43;11.13;;;13.20;99.90;;;;;;5050204;28;20192;-62
2023/09/09 03:09:58;;;;;;;19.47;10.97;;;13.20;99.90;;;;;;5051451;28;20217;-62
2023/09/09 03:12:45;;;;;;;18.70;10.40;;;13.30;99.90;;;;;;5050712;28;20677;-62
2023/09/09 03:15:32;;;;;;;17.27;10.53;;;13.20;99.90;;;;;;5050010;28;20207;-62
2023/09/09 03:18:20;;;;;;;16.73;11.03;;;13.30;99.90;;;;;;5051270;28;20204;-62
2023/09/09 03:21:08;;;;;;;21.13;11.33;;;13.20;99.90;;;;;;5057285;28;20196;-62
2023/09/09 03:23:55;;;;;;;17.63;10.53;;;13.20;99.90;;;;;;5048627;28;20309;-62
2023/09/09 03:26:42;;;;;;;18.57;11.43;;;13.20;99.90;;;;;;5049128;28;20292;-62
2023/09/09 03:29:30;;;;;;;20.07;11.70;;;13.20;99.90;;;;;;5050679;28;20881;-62
2023/09/09 03:32:17;;;;;;;17.50;10.67;;;13.20;99.90;;;;;;5048233;28;20569;-62
2023/09/09 03:35:05;;;;;;;14.77;9.57;;;13.20;99.90;;;;;;5046422;28;20199;-62
2023/09/09 03:37:53;;;;;;;17.33;10.87;;;13.20;99.90;;;;;;5049471;28;20212;-62
2023/09/09 03:40:42;;;;;;;14.53;10.07;;;13.10;99.90;;;;;;5048372;28;20219;-62
2023/09/09 03:43:29;;;;;;;22.67;10.97;;;13.10;99.90;;;;;;5049138;28;20239;-62
2023/09/09 03:46:18;;;;;;;13.87;9.73;;;13.10;99.90;;;;;;5049684;28;20211;-62
2023/09/09 03:49:06;;;;;;;17.70;10.50;;;13.10;99.90;;;;;;5048772;28;20196;-62
2023/09/09 03:51:53;;;;;;;16.10;10.60;;;13.10;99.90;;;;;;5048024;28;20227;-62
2023/09/09 03:54:41;;;;;;;20.90;10.93;;;13.20;99.90;;;;;;5050806;28;20219;-62
2023/09/09 03:57:28;;;;;;;16.97;10.90;;;13.20;99.90;;;;;;5047422;28;20200;-62
2023/09/09 04:00:16;;;;;;;18.23;10.67;;;13.10;99.90;;;;;;5049208;28;20209;-62
2023/09/09 04:03:04;;;;;;;15.97;10.17;;;13.10;99.90;;;;;;5049485;28;20216;-62
2023/09/09 04:05:51;;;;;;;18.17;10.50;;;13.10;99.90;;;;;;5050388;28;20205;-62
2023/09/09 04:08:39;;;;;;;16.07;10.60;;;13.10;99.90;;;;;;5042321;28;20207;-62
2023/09/09 04:11:28;;;;;;;16.53;10.77;;;13.10;99.90;;;;;;5041565;28;20204;-62
2023/09/09 04:14:15;;;;;;;17.00;10.70;;;13.10;99.90;;;;;;5044756;28;20279;-62
2023/09/09 04:17:02;;;;;;;18.07;10.87;;;13.10;99.90;;;;;;5047830;28;20207;-62
2023/09/09 04:19:50;;;;;;;19.27;10.90;;;13.20;99.90;;;;;;5048004;28;20207;-62
2023/09/09 04:22:37;;;;;;;16.83;11.00;;;13.20;99.90;;;;;;5049655;28;20207;-62
2023/09/09 04:25:24;;;;;;;20.13;11.23;;;13.20;99.90;;;;;;5048300;28;20584;-62
2023/09/09 04:28:13;;;;;;;18.60;11.43;;;13.20;99.90;;;;;;5050065;28;20208;-62
2023/09/09 04:31:00;;;;;;;18.80;11.17;;;13.20;99.90;;;;;;5049644;28;20208;-62
2023/09/09 04:33:47;;;;;;;18.80;11.53;;;13.20;99.90;;;;;;5047759;28;21291;-63
2023/09/09 04:36:34;;;;;;;17.33;10.87;;;13.30;99.90;;;;;;5048377;28;20204;-62
2023/09/09 04:39:22;;;;;;;17.63;11.13;;;13.30;99.90;;;;;;5048510;28;20203;-62
2023/09/09 04:42:09;;;;;;;18.17;10.33;;;13.40;99.90;;;;;;5036132;28;20211;-62
2023/09/09 04:44:58;;;;;;;13.30;9.93;;;13.40;99.90;;;;;;5047657;28;20217;-62
2023/09/09 04:47:45;;;;;;;16.10;10.67;;;13.40;99.90;;;;;;5048431;28;20195;-62
2023/09/09 04:50:32;;;;;;;18.30;10.23;;;13.50;99.90;;;;;;5039340;28;20209;-62
2023/09/09 04:53:19;;;;;;;17.87;10.30;;;13.50;99.90;;;;;;5048297;28;20278;-62
2023/09/09 04:56:06;;;;;;;14.83;9.63;;;13.60;99.90;;;;;;5047788;28;20207;-62
2023/09/09 04:58:53;;;;;;;18.67;10.07;;;13.50;99.90;;;;;;5044580;28;20293;-62
2023/09/09 05:01:42;;;;;;;15.97;10.10;;;13.60;99.90;;;;;;5045290;28;20214;-62
2023/09/09 05:04:30;;;;;;;20.03;10.27;;;13.70;99.90;;;;;;5044835;28;20274;-62
2023/09/09 05:07:17;;;;;;;18.07;9.90;;;13.70;99.90;;;;;;5048528;28;20204;-62
2023/09/09 05:10:05;;;;;;;16.53;10.17;;;13.80;99.90;;;;;;5049547;28;20214;-62
2023/09/09 05:12:53;;;;;;;15.70;10.90;;;13.90;99.90;;;;;;5045723;28;20197;-62
2023/09/09 05:15:40;;;;;;;15.77;10.53;;;13.90;99.90;;;;;;5040896;28;20575;-62
2023/09/09 05:18:29;;;;;;;23.13;10.73;;;14.00;99.90;;;;;;5044047;28;20204;-62
2023/09/09 05:21:16;;;;;;;16.43;11.00;;;14.20;99.90;;;;;;5048330;28;20937;-62
2023/09/09 05:24:03;;;;;;;20.33;11.63;;;14.30;99.90;;;;;;5048161;28;20224;-62
2023/09/09 05:26:51;;;;;;;16.17;11.47;;;14.40;99.90;;;;;;5044585;28;20205;-62
2023/09/09 05:29:38;;;;;;;18.20;11.43;;;14.50;99.90;;;;;;5046073;28;20567;-63
2023/09/09 05:32:25;;;;;;;17.23;10.90;;;14.60;99.90;;;;;;5044556;28;20200;-62
2023/09/09 05:35:14;;;;;;;14.73;10.30;;;14.70;99.90;;;;;;5044214;28;20191;-62
2023/09/09 05:38:01;;;;;;;16.57;11.00;;;14.80;99.90;;;;;;5048034;28;20573;-62
2023/09/09 05:40:48;;;;;;;17.07;11.37;;;14.90;99.90;;;;;;5039121;28;20216;-62
2023/09/09 05:43:35;;;;;;;15.90;10.90;;;15.00;99.90;;;;;;5047266;28;20703;-62
2023/09/09 05:46:23;;;;;;;17.77;11.50;;;15.20;99.90;;;;;;5034459;28;20203;-62
2023/09/09 05:49:10;;;;;;;20.60;11.57;;;15.30;99.90;;;;;;5046825;28;20365;-62
2023/09/09 05:51:58;;;;;;;16.80;11.77;;;15.50;99.90;;;;;;5047655;28;20232;-62
2023/09/09 05:54:46;;;;;;;17.03;11.47;;;15.70;99.90;;;;;;5048380;28;20330;-62
2023/09/09 05:57:34;;;;;;;24.77;11.97;;;15.80;99.90;;;;;;5039849;28;20228;-62
2023/09/09 06:00:21;;;;;;;17.70;11.50;;;15.90;99.90;;;;;;5028960;28;20225;-63
2023/09/09 06:03:08;;;;;;;14.03;10.37;;;16.00;99.90;;;;;;5043623;28;20656;-70
2023/09/09 06:05:55;;;;;;;17.40;11.03;;;16.20;99.90;;;;;;5045217;28;20370;-69
2023/09/09 06:08:45;;;;;;;17.27;11.97;;;16.40;99.90;;;;;;5040421;28;20602;-69
2023/09/09 06:11:33;;;;;;;20.10;11.50;;;16.50;99.90;;;;;;5044349;28;20212;-69
2023/09/09 06:14:20;;;;;;;21.30;12.30;;;16.60;99.90;;;;;;5044207;28;20730;-70
2023/09/09 06:17:07;;;;;;;16.47;11.67;;;16.80;99.90;;;;;;5048477;28;20205;-70
2023/09/09 06:19:54;;;;;;;18.83;11.87;;;16.90;99.90;;;;;;5041935;28;20706;-70
2023/09/09 06:22:41;;;;;;;18.27;11.40;;;17.00;99.90;;;;;;5047146;28;20205;-70
2023/09/09 06:25:30;;;;;;;17.77;11.30;;;17.20;99.90;;;;;;5039737;28;20248;-71
2023/09/09 06:28:17;;;;;;;17.13;10.80;;;17.30;99.90;;;;;;5042255;28;20209;-70
2023/09/09 06:31:04;;;;;;;20.43;11.93;;;17.40;99.90;;;;;;5045231;28;20204;-71
2023/09/09 06:33:52;;;;;;;16.40;12.10;;;17.60;99.90;;;;;;5044956;28;20206;-70
2023/09/09 06:36:39;;;;;;;17.23;11.60;;;17.80;99.90;;;;;;5046224;28;20201;-70
2023/09/09 06:39:26;;;;;;;25.10;12.27;;;17.90;99.90;;;;;;5046667;28;20220;-69
2023/09/09 06:42:15;;;;;;;20.10;12.70;;;18.10;99.90;;;;;;5047981;28;20204;-70
2023/09/09 06:45:03;;;;;;;18.57;12.57;;;18.30;99.90;;;;;;5046595;28;20778;-70
2023/09/09 06:47:50;;;;;;;22.80;13.43;;;18.40;99.90;;;;;;5046416;28;20265;-70
2023/09/09 06:50:37;;;;;;;18.90;13.00;;;18.70;99.90;;;;;;5050994;28;20685;-70
2023/09/09 06:53:25;;;;;;;19.30;12.63;;;18.80;99.90;;;;;;5050599;28;20288;-70
2023/09/09 06:56:12;;;;;;;22.13;13.17;;;19.00;99.90;;;;;;5042391;28;20225;-70
2023/09/09 06:59:01;;;;;;;22.63;12.70;;;19.20;99.90;;;;;;5045955;28;20282;-70
2023/09/09 07:01:48;;;;;;;21.70;12.23;;;19.40;99.90;;;;;;5048394;28;20201;-70
2023/09/09 07:04:36;;;;;;;17.50;11.60;;;19.60;99.90;;;;;;5049399;28;20707;-70
2023/09/09 07:07:23;;;;;;;17.30;11.00;;;19.80;99.90;;;;;;5042529;28;20197;-70
2023/09/09 07:10:11;;;;;;;20.73;12.30;;;20.00;99.90;;;;;;5048412;28;20282;-70
2023/09/09 07:12:58;;;;;;;20.00;12.43;;;20.20;99.90;;;;;;5044787;28;20197;-70
2023/09/09 07:15:47;;;;;;;22.00;11.73;;;20.40;99.90;;;;;;5043739;28;20280;-70
2023/09/09 07:18:34;;;;;;;17.10;10.43;;;20.60;99.90;;;;;;5042901;28;20209;-69
2023/09/09 07:21:21;;;;;;;16.87;10.93;;;20.70;99.90;;;;;;5048527;28;20217;-69
2023/09/09 07:24:08;;;;;;;17.60;10.50;;;21.00;99.90;;;;;;5046193;28;20225;-69
2023/09/09 07:26:56;;;;;;;18.90;10.60;;;21.20;99.90;;;;;;5045813;28;20212;-68
2023/09/09 07:29:43;;;;;;;17.60;9.03;;;21.30;99.90;;;;;;5044794;28;20228;-68
2023/09/09 07:32:32;;;;;;;15.03;7.93;;;21.50;99.90;;;;;;5044469;28;20692;-68
2023/09/09 07:35:19;;;;;;;11.10;7.93;;;21.80;99.90;;;;;;5039336;28;20204;-68
2023/09/09 07:38:07;;;;;;;13.63;8.03;;;21.90;99.90;;;;;;5047888;28;20889;-68
2023/09/09 07:40:57;;;;;;;15.80;7.93;;;22.10;99.90;;;;;;5037705;28;20201;-68
2023/09/09 07:43:44;;;;;;;13.77;8.20;;;22.20;99.90;;;;;;5046839;28;20210;-69
2023/09/09 07:46:32;;;;;;;13.30;7.90;;;22.40;99.90;;;;;;5039161;28;20656;-69
2023/09/09 07:49:21;;;;;;;17.73;8.03;;;22.50;99.90;;;;;;5042906;28;20204;-69
2023/09/09 07:52:08;;;;;;;14.40;7.80;;;22.70;99.90;;;;;;5040982;28;20221;-69
2023/09/09 07:54:57;;;;;;;12.20;7.53;;;22.90;99.90;;;;;;5046047;28;20568;-69
2023/09/09 07:57:44;;;;;;;15.93;8.40;;;23.00;99.90;;;;;;5038160;28;20224;-69
2023/09/09 08:00:32;;;;;;;14.10;8.37;;;23.20;99.90;;;;;;5043391;28;20213;-69
2023/09/09 08:03:19;;;;;;;12.30;7.83;;;23.40;99.90;;;;;;5047729;28;20229;-70
2023/09/09 08:06:07;;;;;;;13.13;7.77;;;23.60;99.90;;;;;;5042169;28;20317;-69
2023/09/09 08:08:55;;;;;;;15.90;8.03;;;23.60;99.90;;;;;;5043216;28;20201;-69
2023/09/09 08:11:42;;;;;;;13.20;7.88;;;23.80;99.90;;;;;;5042201;28;20213;-69
2023/09/09 08:14:29;;;;;;;18.88;9.48;;;24.00;99.90;;;;;;5044755;28;20201;-69
2023/09/09 08:17:16;;;;;;;13.43;7.22;;;24.10;99.90;;;;;;5039307;28;20220;-68
2023/09/09 08:20:07;;;;;;;18.55;8.40;;;24.30;99.90;;;;;;5043122;28;20239;-69
2023/09/09 08:22:56;;;;;;;15.80;8.02;;;24.40;99.90;;;;;;5045837;28;20304;-70
2023/09/09 08:25:43;;;;;;;12.00;7.43;;;24.60;99.90;;;;;;5043751;28;20228;-69
2023/09/09 08:28:30;;;;;;;9.85;7.15;;;24.70;99.90;;;;;;5045588;28;20592;-70
2023/09/09 08:31:17;;;;;;;12.65;7.70;;;24.90;99.90;;;;;;5042779;28;20212;-70
2023/09/09 08:34:05;;;;;;;15.30;7.78;;;25.10;99.90;;;;;;5037566;28;20251;-68
2023/09/09 08:36:52;;;;;;;12.18;7.55;;;25.20;99.90;;;;;;5043598;28;20201;-70
2023/09/09 08:39:40;;;;;;;11.85;7.70;;;25.40;99.90;;;;;;5045891;28;20201;-69
2023/09/09 08:42:35;;;;;;;12.60;7.75;;;25.50;99.90;;;;;;5036853;28;20204;-69
2023/09/09 08:45:25;;;;;;;16.33;8.38;;;25.60;99.90;;;;;;5042447;28;20209;-70
2023/09/09 08:48:14;;;;;;;14.77;7.80;;;25.80;99.90;;;;;;5045407;28;20647;-70
2023/09/09 08:51:01;;;;;;;11.98;7.70;;;25.70;99.90;;;;;;5044169;28;20217;-70
2023/09/09 08:53:49;;;;;;;13.27;7.78;;;25.80;99.90;;;;;;5039526;28;20201;-70
2023/09/09 08:56:38;;;;;;;13.23;7.53;;;25.80;99.90;;;;;;5040954;28;20575;-70
2023/09/09 08:59:25;;;;;;;16.83;7.60;;;25.80;99.90;;;;;;5045419;28;20272;-70
2023/09/09 09:02:12;;;;;;;15.07;8.23;;;26.00;99.90;;;;;;5034523;28;20674;-70
2023/09/09 09:04:59;;;;;;;13.77;7.57;;;26.10;99.90;;;;;;5044316;28;20240;-70
2023/09/09 09:07:47;;;;;;;11.13;6.93;;;26.20;99.90;;;;;;5041487;28;20209;-71
2023/09/09 09:10:34;;;;;;;12.82;7.13;;;26.30;99.90;;;;;;5041758;28;20239;-70
2023/09/09 09:13:22;;;;;;;11.85;6.80;;;26.30;99.90;;;;;;5037369;28;20205;-71
2023/09/09 09:16:10;;;;;;;9.98;6.45;;;26.50;99.90;;;;;;5042076;28;20228;-70
2023/09/09 09:19:01;;;;;;;13.77;6.93;;;26.60;99.90;;;;;;5043926;28;20201;-70
2023/09/09 09:21:49;;;;;;;14.65;7.05;;;26.80;99.90;;;;;;5044544;28;20205;-70
2023/09/09 09:24:42;;;;;;;14.95;7.47;;;26.70;88.90;;;;;;5044898;28;20221;-70
2023/09/09 09:27:29;;;;;;;14.18;8.70;;;26.70;99.90;;;;;;5036861;28;20283;-70
2023/09/09 09:30:22;;;;;;;10.20;6.93;;;26.90;93.50;;;;;;5043031;28;20209;-69
2023/09/09 09:33:09;;;;;;;13.48;7.65;;;26.90;87.00;;;;;;5041515;28;20235;-70
2023/09/09 09:35:57;;;;;;;12.93;7.00;;;27.00;88.30;;;;;;5041564;28;20193;-70
2023/09/09 09:38:44;;;;;;;12.88;7.03;;;26.90;97.60;;;;;;5045827;28;21051;-70
2023/09/09 09:41:31;;;;;;;12.55;7.30;;;26.90;79.50;;;;;;5044164;28;20363;-70
2023/09/09 09:44:19;;;;;;;12.80;7.32;;;27.00;89.50;;;;;;5047693;28;20660;-70
2023/09/09 09:47:08;;;;;;;12.27;7.60;;;26.80;99.90;;;;;;5039192;28;20556;-71
2023/09/09 09:49:56;;;;;;;11.50;7.43;;;27.10;97.60;;;;;;5038912;28;20205;-71
2023/09/09 09:52:43;;;;;;;13.77;7.10;;;27.30;91.30;;;;;;5042819;28;20315;-70
2023/09/09 09:55:31;;;;;;;10.68;7.20;;;27.60;85.90;;;;;;5045624;28;20209;-71
2023/09/09 09:58:18;;;;;;;11.32;6.55;;;27.60;92.90;;;;;;5041859;28;20366;-71
2023/09/09 10:01:06;;;;;;;12.55;7.35;;;27.80;83.60;;;;;;5044918;28;20209;-70
2023/09/09 10:03:57;;;;;;;11.60;6.95;;;28.10;75.50;;;;;;5045690;28;20233;-70
2023/09/09 10:06:45;;;;;;;11.10;7.20;;;28.10;77.40;;;;;;5044082;28;20201;-71
2023/09/09 10:09:34;;;;;;;12.25;7.38;;;28.20;69.70;;;;;;5040937;28;20221;-70
2023/09/09 10:12:24;;;;;;;12.57;7.05;;;28.40;75.70;;;;;;5048909;28;20205;-71
2023/09/09 10:15:11;;;;;;;11.27;7.53;;;28.30;76.10;;;;;;5048406;28;20200;-71
2023/09/09 10:17:58;;;;;;;10.73;7.05;;;28.50;74.60;;;;;;5048794;28;20311;-70
2023/09/09 10:20:47;;;;;;;11.55;7.40;;;28.30;73.20;;;;;;5048942;28;20205;-71
2023/09/09 10:23:34;;;;;;;11.68;7.40;;;28.10;80.60;;;;;;5052380;28;20255;-71
2023/09/09 10:26:21;;;;;;;13.88;7.80;;;28.00;90.90;;;;;;5040008;28;20838;-71
2023/09/09 10:29:08;;;;;;;12.55;7.90;;;28.40;75.20;;;;;;5045975;28;20284;-71
2023/09/09 10:31:55;;;;;;;16.38;8.55;;;28.60;71.90;;;;;;5046621;28;20201;-71
2023/09/09 10:34:43;;;;;;;21.65;9.13;;;28.60;76.80;;;;;;5048420;28;20209;-70
2023/09/09 10:37:31;;;;;;;19.20;8.88;;;28.70;69.90;;;;;;5049450;28;20311;-71
2023/09/09 10:40:19;;;;;;;14.68;8.13;;;28.90;66.80;;;;;;5050058;28;20682;-72
2023/09/09 10:43:06;;;;;;;13.63;7.72;;;29.20;69.70;;;;;;5051242;28;20552;-71
2023/09/09 10:45:53;;;;;;;13.75;7.78;;;29.00;63.60;;;;;;5051102;28;20308;-71
2023/09/09 10:48:40;;;;;;;11.90;7.60;;;28.80;65.80;;;;;;5049656;28;20686;-71
2023/09/09 10:51:28;;;;;;;13.23;7.50;;;29.30;62.90;;;;;;5042248;28;20707;-71
2023/09/09 10:54:18;;;;;;;10.50;7.22;;;29.40;63.30;;;;;;5042206;28;20208;-71
2023/09/09 10:57:05;;;;;;;11.77;7.32;;;29.20;62.10;;;;;;5051417;28;20204;-70
2023/09/09 10:59:52;;;;;;;15.48;7.28;;;29.10;59.50;;;;;;5035313;28;20608;-71
2023/09/09 11:02:46;;;;;;;12.00;7.70;;;29.30;58.80;;;;;;5049836;28;20683;-71
2023/09/09 11:05:34;;;;;;;13.75;7.68;;;29.50;58.40;;;;;;5033352;28;20248;-70
2023/09/09 11:08:32;;;;;;;12.90;6.95;;;29.70;58.00;;;;;;5049639;28;20205;-71
2023/09/09 11:11:25;;;;;;;13.15;7.38;;;29.80;56.80;;;;;;5051899;28;20294;-71
2023/09/09 11:14:13;;;;;;;13.43;7.28;;;29.90;58.10;;;;;;5049809;28;20267;-71
2023/09/09 11:17:00;;;;;;;16.38;7.50;;;29.70;56.70;;;;;;5051985;28;20204;-70
2023/09/09 11:19:47;;;;;;;13.70;6.82;;;29.80;56.00;;;;;;5051636;28;20205;-71
2023/09/09 11:22:35;;;;;;;13.13;6.88;;;29.70;55.30;;;;;;5050988;28;20202;-70
2023/09/09 11:25:22;;;;;;;14.55;7.30;;;29.80;55.20;;;;;;5047763;28;20225;-71
2023/09/09 11:28:10;;;;;;;11.35;6.30;;;29.70;55.90;;;;;;5051000;28;20691;-71
2023/09/09 11:30:57;;;;;;;10.60;7.03;;;29.90;60.00;;;;;;5050905;28;20283;-70
2023/09/09 11:33:45;;;;;;;10.68;6.95;;;30.10;58.30;;;;;;5057067;28;20208;-71
2023/09/09 11:36:32;;;;;;;9.10;6.30;;;30.40;55.10;;;;;;5064255;28;20608;-71
2023/09/09 11:39:19;;;;;;;14.23;6.57;;;30.30;55.10;;;;;;5044015;28;20212;-71
2023/09/09 11:42:06;;;;;;;9.30;6.85;;;30.20;52.00;;;;;;5053924;28;20216;-71
2023/09/09 11:44:55;;;;;;;13.63;7.32;;;30.30;53.30;;;;;;5043883;28;20201;-71
2023/09/09 11:47:42;;;;;;;12.88;6.38;;;30.60;52.90;;;;;;5050495;28;20228;-71
2023/09/09 11:50:39;;;;;;;8.57;6.43;;;30.40;53.60;;;;;;5050342;28;20205;-70
2023/09/09 11:53:26;;;;;;;12.02;7.00;;;30.50;54.10;;;;;;5051005;28;20727;-71
2023/09/09 11:56:14;;;;;;;11.68;6.65;;;30.50;53.10;;;;;;5050457;28;20232;-71
2023/09/09 11:59:07;;;;;;;10.75;6.40;;;30.50;50.00;;;;;;5047163;28;20198;-70
2023/09/09 12:01:55;;;;;;;8.85;5.97;;;30.40;50.70;;;;;;5050380;28;20205;-71
2023/09/09 12:04:53;;;;;;;12.38;6.95;;;30.60;50.30;;;;;;5049593;28;20259;-71
2023/09/09 12:07:40;;;;;;;8.32;6.78;;;30.50;54.70;;;;;;5050878;28;20852;-70
2023/09/09 12:10:29;;;;;;;8.52;5.63;;;30.10;51.70;;;;;;5043017;28;20668;-71
2023/09/09 12:13:16;;;;;;;10.48;5.97;;;29.60;53.20;;;;;;5048192;28;20193;-70
2023/09/09 12:16:03;;;;;;;12.68;5.75;;;29.90;52.70;;;;;;5041069;28;20529;-71
2023/09/09 12:18:55;;;;;;;10.52;5.85;;;30.20;51.80;;;;;;5049745;28;20275;-71
2023/09/09 12:21:45;;;;;;;7.80;5.70;;;30.30;51.00;;;;;;5050004;28;20201;-71
2023/09/09 12:24:40;;;;;;;10.13;5.15;;;30.40;51.40;;;;;;5049894;28;20201;-70
2023/09/09 12:27:41;;;;;;;9.85;5.50;;;30.50;49.40;;;;;;5050681;28;20193;-70
2023/09/09 12:30:32;;;;;;;10.15;5.47;;;30.50;48.70;;;;;;5048557;28;20208;-70
2023/09/09 12:33:20;;;;;;;8.73;5.55;;;31.00;49.60;;;;;;5047313;28;20197;-70
2023/09/09 12:36:16;;;;;;;8.85;5.20;;;31.40;47.90;;;;;;5046427;28;20232;-70
2023/09/09 12:39:03;;;;;;;11.73;5.53;;;31.70;46.60;;;;;;5047272;28;20212;-70
2023/09/09 12:42:03;;;;;;;9.98;5.30;;;31.70;48.10;;;;;;5049739;28;20211;-70
2023/09/09 12:44:51;;;;;;;10.00;5.43;;;31.50;47.50;;;;;;5048138;28;20209;-71
2023/09/09 12:47:38;;;;;;;9.07;4.97;;;31.20;46.90;;;;;;5045434;28;20310;-70
2023/09/09 12:50:26;;;;;;;10.38;5.20;;;31.20;45.80;;;;;;5049087;28;20710;-71
2023/09/09 12:53:16;;;;;;;9.57;5.82;;;31.10;44.50;;;;;;5047229;28;20217;-69
2023/09/09 12:56:03;;;;;;;10.20;5.22;;;30.80;47.50;;;;;;5048824;28;20751;-70
2023/09/09 12:58:50;;;;;;;8.75;5.65;;;30.90;47.70;;;;;;5049367;28;20201;-71
2023/09/09 13:01:38;;;;;;;6.75;5.05;;;30.80;49.90;;;;;;5049373;28;20668;-70
2023/09/09 13:04:25;;;;;;;8.70;4.57;;;30.70;46.90;;;;;;5049287;28;20221;-70
2023/09/09 13:07:12;;;;;;;9.70;5.40;;;31.00;47.10;;;;;;5049433;28;20228;-70
2023/09/09 13:10:01;;;;;;;7.28;4.95;;;31.10;45.90;;;;;;5047462;28;20581;-70
2023/09/09 13:12:48;;;;;;;11.57;6.03;;;31.30;46.30;;;;;;5048630;28;20201;-71
2023/09/09 13:15:36;;;;;;;11.02;6.68;;;31.30;45.90;;;;;;5049689;28;20255;-70
2023/09/09 13:18:23;;;;;;;9.00;5.95;;;31.60;49.90;;;;;;5049202;28;20252;-70
2023/09/09 13:21:10;;;;;;;9.32;5.80;;;31.90;48.50;;;;;;5049321;28;20208;-71
2023/09/09 13:23:58;;;;;;;8.02;5.72;;;32.40;46.30;;;;;;5049100;28;20254;-70
2023/09/09 13:26:47;;;;;;;8.52;5.25;;;32.30;46.30;;;;;;5046343;28;20595;-70
2023/09/09 13:29:35;;;;;;;8.48;5.85;;;31.80;44.70;;;;;;5048685;28;20251;-70
2023/09/09 13:32:22;;;;;;;10.13;5.82;;;31.60;44.00;;;;;;5049100;28;20196;-70
2023/09/09 13:35:10;;;;;;;8.60;5.68;;;31.10;46.40;;;;;;5048938;28;20958;-70
2023/09/09 13:37:57;;;;;;;6.95;5.45;;;30.90;47.10;;;;;;5048937;28;20204;-70
2023/09/09 13:40:44;;;;;;;7.45;5.35;;;30.80;48.00;;;;;;5048420;28;20288;-70
2023/09/09 13:43:33;;;;;;;10.25;5.90;;;31.00;47.40;;;;;;5046702;28;20246;-71
2023/09/09 13:46:21;;;;;;;10.77;6.28;;;31.10;47.20;;;;;;5051884;28;20690;-70
2023/09/09 13:49:08;;;;;;;9.00;5.80;;;31.20;45.90;;;;;;5052241;28;20236;-71
2023/09/09 13:51:55;;;;;;;8.38;5.90;;;30.80;46.80;;;;;;5052483;28;20707;-71
2023/09/09 13:54:43;;;;;;;10.90;5.53;;;30.80;48.30;;;;;;5050611;28;20239;-70
2023/09/09 13:57:32;;;;;;;9.48;6.05;;;30.80;46.80;;;;;;5045097;28;20204;-70
2023/09/09 14:00:20;;;;;;;8.50;5.38;;;30.80;48.00;;;;;;5053239;28;20254;-71
2023/09/09 14:03:08;;;;;;;6.40;5.15;;;30.90;48.00;;;;;;5052526;28;20363;-70
2023/09/09 14:05:57;;;;;;;11.52;5.57;;;31.10;47.20;;;;;;5052454;28;20226;-70
2023/09/09 14:08:44;;;;;;;12.30;5.75;;;31.20;44.90;;;;;;5053195;28;20212;-70
2023/09/09 14:11:31;;;;;;;8.25;5.32;;;31.40;45.80;;;;;;5052459;28;20676;-70
2023/09/09 14:14:19;;;;;;;8.38;5.60;;;31.20;46.40;;;;;;5050174;28;20274;-70
2023/09/09 14:17:07;;;;;;;7.72;5.30;;;31.20;47.90;;;;;;5053087;28;20208;-71
2023/09/09 14:19:54;;;;;;;8.98;5.57;;;31.20;47.30;;;;;;5051295;28;20251;-70